This is the latest recevied weather packets stored in our database for station/object SQ3VAS-10. If no packets are shown the sender has not sent any weather packets the latest 10 day(s).
| Time | Temp. | Humidity | Pressure | Rain* | Wind** | Luminosity | Snow |
|---|---|---|---|---|---|---|---|
| 1778067450 | 13.33° C | 92% | 1006.5 hPa | - | - | - | - |
| 1778066878 | 12.78° C | 94% | 1006.6 hPa | - | - | - | - |
| 1778066306 | 12.22° C | 95% | 1006.7 hPa | - | - | - | - |
| 1778065734 | 12.78° C | 94% | 1006.7 hPa | - | - | - | - |
| 1778065162 | 12.22° C | 94% | 1006.6 hPa | - | - | - | - |
| 1778064590 | 12.78° C | 94% | 1006.5 hPa | - | - | - | - |
| 1778064019 | 12.22° C | 94% | 1006.6 hPa | - | - | - | - |
| 1778063446 | 12.78° C | 94% | 1006.4 hPa | - | - | - | - |
| 1778062873 | 12.22° C | 95% | 1006.4 hPa | - | - | - | - |
| 1778062301 | 12.22° C | 95% | 1006.3 hPa | - | - | - | - |
| 1778061728 | 12.22° C | 95% | 1006.3 hPa | - | - | - | - |
| 1778061156 | 11.67° C | 95% | 1006.5 hPa | - | - | - | - |
| 1778060584 | 11.67° C | 95% | 1006.5 hPa | - | - | - | - |
| 1778060012 | 12.22° C | 95% | 1006.3 hPa | - | - | - | - |
| 1778059440 | 11.67° C | 96% | 1006.4 hPa | - | - | - | - |
| 1778058869 | 11.67° C | 96% | 1006.4 hPa | - | - | - | - |
| 1778058297 | 11.67° C | 96% | 1006.3 hPa | - | - | - | - |
| 1778057726 | 11.67° C | 95% | 1006.3 hPa | - | - | - | - |
| 1778057154 | 11.67° C | 97% | 1006.3 hPa | - | - | - | - |
| 1778056582 | 11.67° C | 96% | 1006.2 hPa | - | - | - | - |
| 1778056009 | 11.67° C | 96% | 1006.2 hPa | - | - | - | - |
| 1778055437 | 11.11° C | 97% | 1006.3 hPa | - | - | - | - |
| 1778054866 | 11.67° C | 96% | 1006.3 hPa | - | - | - | - |
| 1778054293 | 11.67° C | 96% | 1006.3 hPa | - | - | - | - |
| 1778053721 | 11.67° C | 97% | 1006.1 hPa | - | - | - | - |
* Rain since midnight (hover to see other rain measurements)
** Current wind speed in m/s (hover to see current wind gust speed)